Time;durP1;ratioP1;P1;durP2;ratioP2;P2;SDS_P1;SDS_P2;PMS_P1;PMS_P2;Temp;Humidity;BMP_temperature;BMP_pressure;BME280_temperature;BME280_humidity;BME280_pressure;Samples;Min_cycle;Max_cycle;Signal;HPM_P1;HPM_P2
2021/03/15 00:00:07;;;;;;;8.35;2.13;;;6.50;99.90;;;;;;5091789;28;20028;-73
2021/03/15 00:02:32;;;;;;;8.80;2.10;;;6.40;99.90;;;;;;5092532;28;20105;-72
2021/03/15 00:04:58;;;;;;;8.88;2.15;;;6.40;99.90;;;;;;5091479;28;20082;-72
2021/03/15 00:07:23;;;;;;;7.28;1.88;;;6.40;99.90;;;;;;5092511;28;20040;-72
2021/03/15 00:09:49;;;;;;;5.60;2.13;;;6.40;99.90;;;;;;5092519;28;20024;-73
2021/03/15 00:12:14;;;;;;;5.18;1.88;;;6.40;99.90;;;;;;5101249;28;20016;-73
2021/03/15 00:14:40;;;;;;;6.72;2.35;;;6.40;99.90;;;;;;5097438;28;20105;-72
2021/03/15 00:17:06;;;;;;;4.65;2.17;;;6.40;99.90;;;;;;5092125;28;20024;-73
2021/03/15 00:19:31;;;;;;;3.55;2.10;;;6.50;99.90;;;;;;5091420;28;20020;-74
2021/03/15 00:21:57;;;;;;;5.45;2.30;;;6.40;99.90;;;;;;5092058;28;20024;-74
2021/03/15 00:24:22;;;;;;;6.15;2.78;;;6.40;99.90;;;;;;5092254;28;20035;-74
2021/03/15 00:26:48;;;;;;;4.03;2.70;;;6.40;99.90;;;;;;5091409;28;20103;-72
2021/03/15 00:29:13;;;;;;;6.03;2.45;;;6.40;99.90;;;;;;5092229;28;20042;-72
2021/03/15 00:31:39;;;;;;;5.18;2.45;;;6.40;99.90;;;;;;5092108;28;20020;-72
2021/03/15 00:34:04;;;;;;;5.85;2.85;;;6.50;99.90;;;;;;5091087;28;20114;-74
2021/03/15 00:36:30;;;;;;;8.40;2.80;;;6.40;99.90;;;;;;5092261;28;20016;-72
2021/03/15 00:38:55;;;;;;;8.57;3.42;;;6.40;99.90;;;;;;5091760;28;20112;-72
2021/03/15 00:41:21;;;;;;;14.57;3.40;;;6.40;99.90;;;;;;5091523;28;20471;-72
2021/03/15 00:43:46;;;;;;;8.63;3.28;;;6.40;99.90;;;;;;5091923;28;20038;-73
2021/03/15 00:46:12;;;;;;;6.10;3.55;;;6.40;99.90;;;;;;5091579;28;20035;-72
2021/03/15 00:48:37;;;;;;;5.90;3.05;;;6.40;99.90;;;;;;5091106;28;20032;-73
2021/03/15 00:51:10;;;;;;;4.00;3.10;;;6.30;99.90;;;;;;5092066;28;20026;-73
2021/03/15 00:53:36;;;;;;;9.10;3.53;;;6.30;99.90;;;;;;5091971;28;20506;-73
2021/03/15 00:56:01;;;;;;;5.53;3.67;;;6.30;99.90;;;;;;5090557;28;20111;-73
2021/03/15 00:58:27;;;;;;;8.88;4.95;;;6.30;99.90;;;;;;5091862;28;20117;-72
2021/03/15 01:00:53;;;;;;;11.10;4.22;;;6.30;99.90;;;;;;5091484;28;20505;-72
2021/03/15 01:03:18;;;;;;;8.82;4.90;;;6.20;99.90;;;;;;5091051;28;20055;-72
2021/03/15 01:05:47;;;;;;;8.57;4.78;;;6.30;99.90;;;;;;5091905;28;20020;-72
2021/03/15 01:08:16;;;;;;;6.93;5.10;;;6.30;99.90;;;;;;5090944;28;20216;-72
2021/03/15 01:10:44;;;;;;;13.35;5.85;;;6.30;99.90;;;;;;5091850;28;20020;-71
2021/03/15 01:13:11;;;;;;;7.88;5.13;;;6.30;99.90;;;;;;5105664;28;20616;-72
2021/03/15 01:15:38;;;;;;;8.55;5.50;;;6.30;99.90;;;;;;5091163;28;20031;-72
2021/03/15 01:18:04;;;;;;;8.10;5.60;;;6.30;99.90;;;;;;5091613;28;20024;-72
2021/03/15 01:20:31;;;;;;;9.40;6.25;;;6.20;99.90;;;;;;5091894;28;20022;-71
2021/03/15 01:22:57;;;;;;;10.07;6.60;;;6.30;99.90;;;;;;5104649;28;20355;-72
2021/03/15 01:25:30;;;;;;;9.65;7.10;;;6.30;99.90;;;;;;5092786;28;20016;-72
2021/03/15 01:27:55;;;;;;;11.40;6.85;;;6.30;99.90;;;;;;5091248;28;20499;-72
2021/03/15 01:30:25;;;;;;;12.90;8.60;;;6.30;99.90;;;;;;5090800;28;20020;-72
2021/03/15 01:32:50;;;;;;;10.45;7.10;;;6.30;99.90;;;;;;5091405;28;20062;-73
2021/03/15 01:35:16;;;;;;;10.02;7.28;;;6.30;99.90;;;;;;5092748;28;20055;-73
2021/03/15 01:37:42;;;;;;;18.58;7.20;;;6.30;99.90;;;;;;5094946;28;20085;-72
2021/03/15 01:40:08;;;;;;;11.23;7.28;;;6.30;99.90;;;;;;5095007;28;20020;-73
2021/03/15 01:42:33;;;;;;;10.23;5.85;;;6.40;99.90;;;;;;5095290;28;20380;-72
2021/03/15 01:44:59;;;;;;;12.30;6.78;;;6.30;99.90;;;;;;5094294;28;20032;-73
2021/03/15 01:47:25;;;;;;;13.27;5.60;;;6.40;99.90;;;;;;5095369;28;20364;-73
2021/03/15 01:49:52;;;;;;;17.77;5.68;;;6.30;99.90;;;;;;5095113;28;20485;-73
2021/03/15 01:52:18;;;;;;;8.38;1.98;;;6.40;99.90;;;;;;5094408;28;20024;-72
2021/03/15 01:54:44;;;;;;;4.78;2.10;;;6.40;99.90;;;;;;5095055;28;20383;-73
2021/03/15 01:57:09;;;;;;;5.43;1.40;;;6.30;99.90;;;;;;5094574;28;20020;-73
2021/03/15 01:59:35;;;;;;;2.33;1.30;;;6.30;99.90;;;;;;5094256;28;20028;-72
2021/03/15 02:02:01;;;;;;;2.17;1.40;;;6.30;99.90;;;;;;5094655;28;20027;-72
2021/03/15 02:04:27;;;;;;;3.50;1.30;;;6.30;99.90;;;;;;5101817;28;20055;-71
2021/03/15 02:06:53;;;;;;;2.20;2.00;;;6.20;99.90;;;;;;5103333;28;20456;-71
2021/03/15 02:09:20;;;;;;;2.35;1.48;;;6.20;99.90;;;;;;5094871;28;20388;-71
2021/03/15 02:12:00;;;;;;;3.13;1.83;;;6.20;99.90;;;;;;5099231;28;20468;-72
2021/03/15 02:14:51;;;;;;;5.13;1.60;;;6.20;99.90;;;;;;5114812;28;20024;-71
2021/03/15 02:17:44;;;;;;;2.95;1.50;;;6.20;99.90;;;;;;5106362;28;20047;-71
2021/03/15 02:20:25;;;;;;;5.93;1.55;;;6.10;99.90;;;;;;5070338;28;20105;-72
2021/03/15 02:22:56;;;;;;;;;;;6.10;99.90;;;;;;5094645;28;20564;-72
2021/03/15 02:25:59;;;;;;;5.18;1.88;;;6.00;99.90;;;;;;5106074;28;20047;-71
2021/03/15 02:28:59;;;;;;;2.40;1.70;;;5.90;99.90;;;;;;5094235;28;20130;-72
2021/03/15 02:31:40;;;;;;;10.10;2.30;;;5.90;99.90;;;;;;5094430;28;20468;-72
2021/03/15 02:34:11;;;;;;;;;;;5.90;99.90;;;;;;5093869;28;20028;-72
2021/03/15 02:36:42;;;;;;;2.92;2.28;;;5.90;99.90;;;;;;5094356;28;19922;-71
2021/03/15 02:39:16;;;;;;;9.52;3.03;;;5.90;99.90;;;;;;5093895;28;20024;-71
2021/03/15 02:41:44;;;;;;;8.40;2.75;;;5.80;99.90;;;;;;5093751;28;20108;-71
2021/03/15 02:44:12;;;;;;;7.20;2.83;;;5.80;99.90;;;;;;5093954;28;20036;-72
2021/03/15 02:46:42;;;;;;;6.63;3.38;;;5.70;99.90;;;;;;5092319;28;20020;-72
2021/03/15 02:49:12;;;;;;;9.60;3.75;;;5.70;99.90;;;;;;5093324;28;20089;-71
2021/03/15 02:51:39;;;;;;;6.43;3.42;;;5.70;99.90;;;;;;5094569;28;20051;-71
2021/03/15 02:54:07;;;;;;;4.72;3.55;;;5.70;99.90;;;;;;5093527;28;20400;-73
2021/03/15 02:56:38;;;;;;;9.98;4.10;;;5.70;99.90;;;;;;5095075;28;20024;-73
2021/03/15 02:59:04;;;;;;;11.23;4.15;;;5.70;99.90;;;;;;5095010;28;20024;-73
2021/03/15 03:01:31;;;;;;;11.77;4.43;;;5.80;99.90;;;;;;5095182;28;20107;-71
2021/03/15 03:03:58;;;;;;;10.65;3.90;;;5.90;99.90;;;;;;5093251;28;20128;-72
2021/03/15 03:06:28;;;;;;;10.90;3.90;;;5.90;99.90;;;;;;5093466;28;20368;-72
2021/03/15 03:08:56;;;;;;;10.68;3.78;;;5.90;99.90;;;;;;5092896;28;20070;-71
2021/03/15 03:11:25;;;;;;;7.88;3.35;;;5.90;99.90;;;;;;5095799;28;20031;-72
2021/03/15 03:13:52;;;;;;;11.50;4.07;;;5.90;99.90;;;;;;5105603;28;20020;-72
2021/03/15 03:16:20;;;;;;;12.35;3.95;;;5.90;99.90;;;;;;5092734;28;20075;-72
2021/03/15 03:18:49;;;;;;;5.53;3.67;;;6.00;99.90;;;;;;5093618;28;20076;-72
2021/03/15 03:21:19;;;;;;;8.10;3.72;;;5.90;99.90;;;;;;5093948;28;20043;-72
2021/03/15 03:23:50;;;;;;;16.70;5.78;;;5.90;99.90;;;;;;5093168;28;20020;-72
2021/03/15 03:26:17;;;;;;;12.18;3.85;;;5.90;99.90;;;;;;5093695;28;20025;-71
2021/03/15 03:28:45;;;;;;;8.75;3.13;;;5.90;99.90;;;;;;5092456;28;20084;-73
2021/03/15 03:31:12;;;;;;;17.92;3.72;;;5.90;99.90;;;;;;5098163;28;20021;-72
2021/03/15 03:33:38;;;;;;;9.85;3.40;;;5.90;99.90;;;;;;5093482;28;20024;-71
2021/03/15 03:36:04;;;;;;;9.75;3.00;;;5.90;99.90;;;;;;5092130;28;20211;-71
2021/03/15 03:38:30;;;;;;;15.52;3.22;;;5.90;99.90;;;;;;5093055;28;20024;-71
2021/03/15 03:40:57;;;;;;;19.15;3.50;;;5.90;99.90;;;;;;5106991;28;20059;-71
2021/03/15 03:43:22;;;;;;;7.15;3.13;;;5.90;99.90;;;;;;5092367;28;20388;-72
2021/03/15 03:45:48;;;;;;;11.93;2.65;;;5.80;99.90;;;;;;5092765;28;20056;-72
2021/03/15 03:48:14;;;;;;;12.45;3.67;;;5.80;99.90;;;;;;5099399;28;20061;-72
2021/03/15 03:50:39;;;;;;;11.02;3.33;;;5.80;99.90;;;;;;5100300;28;20103;-72
2021/03/15 03:53:19;;;;;;;18.73;4.70;;;5.80;99.90;;;;;;5092819;28;20043;-73
2021/03/15 03:55:55;;;;;;;12.68;3.83;;;5.80;99.90;;;;;;5093046;28;20442;-72
2021/03/15 03:58:23;;;;;;;16.02;4.10;;;5.80;99.90;;;;;;5091799;28;20353;-72
2021/03/15 04:00:53;;;;;;;14.60;4.00;;;5.80;99.90;;;;;;5092526;28;20456;-72
2021/03/15 04:03:19;;;;;;;10.98;4.18;;;5.80;99.90;;;;;;5092453;28;20054;-71
2021/03/15 04:05:51;;;;;;;8.88;3.92;;;5.80;99.90;;;;;;5102052;28;20019;-72
2021/03/15 04:08:21;;;;;;;9.82;3.70;;;5.80;99.90;;;;;;5095457;28;20512;-72
2021/03/15 04:10:48;;;;;;;10.82;4.00;;;5.90;99.90;;;;;;5092703;28;20043;-72
2021/03/15 04:13:18;;;;;;;12.77;4.22;;;5.90;99.90;;;;;;5091908;28;20391;-72
2021/03/15 04:15:46;;;;;;;18.80;4.45;;;5.90;99.90;;;;;;5092652;28;20082;-72
2021/03/15 04:18:15;;;;;;;11.48;4.25;;;6.00;99.90;;;;;;5091460;28;20028;-72
2021/03/15 04:20:42;;;;;;;18.65;5.60;;;5.90;99.90;;;;;;5092389;28;20019;-72
2021/03/15 04:23:12;;;;;;;11.50;4.35;;;5.90;99.90;;;;;;5092103;28;20865;-72
2021/03/15 04:25:40;;;;;;;13.00;5.40;;;5.90;99.90;;;;;;5091806;28;20019;-71
2021/03/15 04:28:08;;;;;;;9.43;4.90;;;6.00;99.90;;;;;;5095884;28;20085;-72
2021/03/15 04:30:37;;;;;;;12.13;4.55;;;6.00;99.90;;;;;;5095876;28;20020;-71
2021/03/15 04:33:03;;;;;;;8.98;4.30;;;6.00;99.90;;;;;;5091397;28;20136;-71
2021/03/15 04:35:31;;;;;;;14.25;4.80;;;6.00;99.90;;;;;;5092107;28;20107;-72
2021/03/15 04:37:59;;;;;;;5.95;4.32;;;6.50;99.90;;;;;;5101338;28;20023;-72
2021/03/15 04:40:27;;;;;;;13.85;6.07;;;6.00;99.90;;;;;;5111220;28;20030;-72
2021/03/15 04:42:59;;;;;;;9.63;5.20;;;6.00;99.90;;;;;;5091914;28;20031;-72
2021/03/15 04:45:32;;;;;;;12.07;4.88;;;6.00;99.90;;;;;;5092220;28;20032;-72
2021/03/15 04:48:00;;;;;;;12.98;4.20;;;6.10;99.90;;;;;;5090881;28;20044;-72
2021/03/15 04:50:27;;;;;;;13.43;4.50;;;6.00;99.90;;;;;;5092017;28;20491;-72
2021/03/15 04:52:54;;;;;;;16.85;5.03;;;6.00;99.90;;;;;;5091815;28;20047;-72
2021/03/15 04:55:19;;;;;;;22.90;5.93;;;6.00;99.90;;;;;;5091278;28;20073;-72
2021/03/15 04:57:48;;;;;;;11.70;4.28;;;6.00;99.90;;;;;;5092036;28;20027;-72
2021/03/15 05:00:15;;;;;;;13.00;4.55;;;6.00;99.90;;;;;;5091474;28;20077;-70
2021/03/15 05:02:44;;;;;;;8.27;4.47;;;6.10;99.90;;;;;;5091927;28;20035;-71
2021/03/15 05:05:13;;;;;;;11.40;4.25;;;6.10;99.90;;;;;;5091880;28;20024;-71
2021/03/15 05:07:41;;;;;;;12.43;4.22;;;6.10;99.90;;;;;;5091103;28;20044;-71
2021/03/15 05:10:08;;;;;;;7.97;3.42;;;6.10;99.90;;;;;;5092765;28;20036;-71
2021/03/15 05:12:35;;;;;;;10.88;4.10;;;6.10;99.90;;;;;;5096112;28;20035;-72
2021/03/15 05:15:01;;;;;;;14.32;4.97;;;6.20;99.90;;;;;;5094968;28;20020;-73
2021/03/15 05:17:27;;;;;;;12.15;4.65;;;6.20;99.90;;;;;;5095950;28;20028;-71
2021/03/15 05:19:54;;;;;;;13.93;3.83;;;6.20;99.90;;;;;;5098580;28;20023;-72
2021/03/15 05:22:19;;;;;;;17.98;3.40;;;6.20;99.90;;;;;;5115613;28;20424;-72
2021/03/15 05:24:46;;;;;;;9.30;2.92;;;6.20;99.90;;;;;;5100369;28;20024;-73
2021/03/15 05:27:13;;;;;;;8.52;2.50;;;6.20;99.90;;;;;;5102947;28;20041;-73
2021/03/15 05:29:40;;;;;;;5.93;2.42;;;6.20;99.90;;;;;;5115314;28;20031;-72
2021/03/15 05:32:07;;;;;;;8.45;2.63;;;6.20;99.90;;;;;;5115631;28;20023;-72
2021/03/15 05:34:34;;;;;;;12.35;2.38;;;6.30;99.90;;;;;;5116406;28;20035;-73
2021/03/15 05:37:03;;;;;;;6.53;2.72;;;6.30;99.90;;;;;;5110839;28;20028;-72
2021/03/15 05:39:29;;;;;;;16.20;3.10;;;6.30;99.90;;;;;;5106342;28;20468;-72
2021/03/15 05:41:57;;;;;;;9.18;1.80;;;6.30;99.90;;;;;;5102647;28;20025;-72
2021/03/15 05:44:41;;;;;;;6.07;1.77;;;6.30;99.90;;;;;;5094306;28;20024;-72
2021/03/15 05:47:38;;;;;;;6.38;1.90;;;6.20;99.90;;;;;;5094887;28;20078;-71
2021/03/15 05:50:49;;;;;;;11.38;2.58;;;6.20;99.90;;;;;;5104278;28;20099;-72
2021/03/15 05:53:29;;;;;;;7.90;2.35;;;6.10;99.90;;;;;;5091263;28;20483;-72
2021/03/15 05:56:00;;;;;;;13.13;2.28;;;6.00;99.90;;;;;;5114958;28;20521;-72
2021/03/15 05:59:03;;;;;;;7.22;1.85;;;5.90;99.90;;;;;;5114762;28;20028;-72
2021/03/15 06:01:51;;;;;;;10.85;1.55;;;5.80;99.90;;;;;;5115326;28;20022;-72
2021/03/15 06:04:55;;;;;;;12.52;2.08;;;5.80;99.90;;;;;;5114461;28;20532;-71
2021/03/15 06:07:25;;;;;;;9.18;2.00;;;5.80;99.90;;;;;;5115017;28;20044;-72
2021/03/15 06:10:05;;;;;;;8.30;1.95;;;5.80;99.90;;;;;;5113555;28;20398;-71
2021/03/15 06:12:51;;;;;;;11.00;1.70;;;5.80;99.90;;;;;;5111957;28;20035;-72
2021/03/15 06:15:25;;;;;;;8.10;1.60;;;5.80;99.90;;;;;;5113767;28;20793;-72
2021/03/15 06:17:52;;;;;;;18.77;2.13;;;5.70;99.90;;;;;;5110778;28;20114;-73
2021/03/15 06:20:18;;;;;;;9.10;2.08;;;5.70;99.90;;;;;;5109997;28;20044;-72
2021/03/15 06:22:44;;;;;;;11.85;2.88;;;5.70;99.90;;;;;;5112548;28;20065;-72
2021/03/15 06:25:12;;;;;;;9.48;1.70;;;5.70;99.90;;;;;;5108514;28;20027;-72
2021/03/15 06:27:40;;;;;;;13.30;2.40;;;5.70;99.90;;;;;;5114038;28;20031;-71
2021/03/15 06:30:06;;;;;;;6.97;2.03;;;5.70;99.90;;;;;;5110839;28;20353;-72
2021/03/15 06:32:32;;;;;;;25.90;2.58;;;5.80;99.90;;;;;;5110084;28;20102;-71
2021/03/15 06:34:58;;;;;;;15.23;2.03;;;5.80;99.90;;;;;;5107310;28;20468;-72
2021/03/15 06:37:24;;;;;;;13.27;1.83;;;5.80;99.90;;;;;;5109843;28;20098;-71
2021/03/15 06:39:50;;;;;;;20.92;3.15;;;5.80;99.90;;;;;;5111845;28;20062;-73
2021/03/15 06:42:17;;;;;;;12.77;2.35;;;5.80;99.90;;;;;;5109751;28;20019;-72
2021/03/15 06:44:43;;;;;;;19.33;2.33;;;5.80;99.90;;;;;;5107590;28;20036;-72
2021/03/15 06:47:09;;;;;;;13.80;1.67;;;5.90;99.90;;;;;;5092118;28;20100;-72
2021/03/15 06:49:35;;;;;;;12.52;2.67;;;5.90;99.90;;;;;;5098331;28;20020;-72
2021/03/15 06:52:08;;;;;;;7.55;1.95;;;6.00;99.90;;;;;;5092696;28;20020;-72
2021/03/15 06:54:34;;;;;;;24.00;3.78;;;6.00;99.90;;;;;;5097778;28;20021;-72
2021/03/15 06:57:12;;;;;;;16.45;2.45;;;6.00;99.90;;;;;;5092405;28;20028;-72
2021/03/15 06:59:53;;;;;;;19.83;2.38;;;6.00;99.90;;;;;;5092299;28;20396;-71
2021/03/15 07:02:23;;;;;;;18.38;3.22;;;6.10;99.90;;;;;;5099924;28;20020;-73
2021/03/15 07:04:49;;;;;;;17.67;3.47;;;6.20;99.90;;;;;;5093699;28;20028;-74
2021/03/15 07:07:28;;;;;;;23.38;2.92;;;6.30;99.90;;;;;;5092478;28;20052;-74
2021/03/15 07:09:55;;;;;;;11.73;2.00;;;6.30;99.90;;;;;;5092639;28;20467;-74
2021/03/15 07:12:33;;;;;;;15.38;2.17;;;6.30;99.90;;;;;;5096022;28;20028;-73
2021/03/15 07:15:06;;;;;;;16.02;2.00;;;6.40;99.90;;;;;;5092504;28;20020;-76
2021/03/15 07:17:32;;;;;;;15.73;4.38;;;6.50;99.90;;;;;;5107456;28;20088;-76
2021/03/15 07:19:58;;;;;;;20.73;2.55;;;6.50;99.90;;;;;;5110649;28;20012;-75
2021/03/15 07:22:28;;;;;;;23.08;3.58;;;6.60;99.90;;;;;;5113397;28;20356;-74
2021/03/15 07:25:13;;;;;;;13.70;2.10;;;6.60;99.90;;;;;;5098977;28;20081;-75
2021/03/15 07:27:41;;;;;;;14.02;2.03;;;6.60;99.90;;;;;;5105972;28;20035;-76
2021/03/15 07:30:27;;;;;;;16.20;3.05;;;6.50;99.90;;;;;;5097506;28;20524;-75
2021/03/15 07:32:53;;;;;;;20.40;3.45;;;6.50;99.90;;;;;;5106018;28;20035;-74
2021/03/15 07:35:24;;;;;;;11.15;1.98;;;6.50;99.90;;;;;;5105940;28;20027;-74
2021/03/15 07:37:49;;;;;;;22.65;3.10;;;6.50;99.90;;;;;;5102455;28;20035;-73
2021/03/15 07:40:31;;;;;;;13.07;2.17;;;6.50;99.90;;;;;;5098003;28;20119;-75
2021/03/15 07:43:00;;;;;;;24.10;2.25;;;6.70;99.90;;;;;;5095947;28;20102;-76
2021/03/15 07:45:33;;;;;;;23.10;2.58;;;6.80;99.90;;;;;;5097040;28;20420;-73
2021/03/15 07:48:12;;;;;;;20.75;2.95;;;6.80;99.90;;;;;;5098473;28;20066;-74
2021/03/15 07:50:42;;;;;;;17.27;2.90;;;6.90;99.90;;;;;;5107238;28;20055;-74
2021/03/15 07:53:08;;;;;;;13.25;2.53;;;7.00;99.90;;;;;;5110472;28;20030;-76
2021/03/15 07:55:38;;;;;;;18.15;2.05;;;7.10;99.90;;;;;;5112074;28;20039;-76
2021/03/15 07:58:25;;;;;;;15.25;2.33;;;7.10;99.90;;;;;;5110953;28;20024;-76
2021/03/15 08:00:51;;;;;;;19.92;3.25;;;7.10;99.90;;;;;;5111456;28;20023;-76
2021/03/15 08:03:17;;;;;;;23.98;2.95;;;7.00;99.90;;;;;;5110140;28;20032;-76
2021/03/15 08:05:43;;;;;;;30.00;3.70;;;6.90;99.90;;;;;;5110245;28;20066;-76
2021/03/15 08:08:09;;;;;;;24.27;2.17;;;7.00;99.90;;;;;;5109164;28;20059;-76
2021/03/15 08:10:34;;;;;;;15.77;2.20;;;7.00;99.90;;;;;;5110705;28;20015;-76
2021/03/15 08:13:01;;;;;;;15.68;1.90;;;7.00;99.90;;;;;;5111087;28;20153;-76
2021/03/15 08:15:28;;;;;;;12.02;2.00;;;7.10;99.90;;;;;;5111102;28;20051;-76
2021/03/15 08:17:56;;;;;;;12.05;1.90;;;7.30;99.90;;;;;;5109758;28;20104;-76
2021/03/15 08:20:24;;;;;;;15.02;2.30;;;7.50;99.90;;;;;;5112088;28;20426;-75
2021/03/15 08:22:52;;;;;;;15.13;2.22;;;7.60;99.90;;;;;;5111620;28;20054;-78
2021/03/15 08:25:19;;;;;;;14.57;1.77;;;7.70;99.90;;;;;;5110889;28;20042;-77
2021/03/15 08:27:47;;;;;;;12.07;1.85;;;7.80;99.90;;;;;;5099911;28;20031;-78
2021/03/15 08:30:22;;;;;;;12.95;1.92;;;7.80;99.90;;;;;;5109475;28;20027;-78
2021/03/15 08:32:49;;;;;;;7.63;1.23;;;7.80;99.90;;;;;;5111179;28;20038;-78
2021/03/15 08:35:16;;;;;;;8.80;1.23;;;7.70;99.90;;;;;;5107276;28;20111;-79
2021/03/15 08:38:00;;;;;;;9.73;2.28;;;7.30;99.90;;;;;;5102011;28;20015;-79
2021/03/15 08:40:42;;;;;;;8.32;1.02;;;6.90;99.90;;;;;;5110702;28;20020;-77
2021/03/15 08:43:22;;;;;;;3.60;1.10;;;6.40;99.90;;;;;;5092001;28;20077;-80
2021/03/15 08:45:50;;;;;;;9.18;1.27;;;6.30;99.90;;;;;;5090244;28;20388;-78
2021/03/15 08:48:17;;;;;;;13.13;1.10;;;6.10;99.90;;;;;;5092528;28;20040;-77
2021/03/15 08:50:47;;;;;;;7.72;1.00;;;6.00;99.90;;;;;;5092117;28;20111;-76
2021/03/15 08:53:38;;;;;;;17.70;3.33;;;6.00;99.90;;;;;;5091274;28;20118;-76
2021/03/15 08:56:04;;;;;;;;;;;6.00;99.90;;;;;;5092167;28;20036;-78
2021/03/15 08:58:50;;;;;;;7.90;1.35;;;6.00;99.90;;;;;;5092478;28;19903;-76
2021/03/15 09:01:20;;;;;;;11.13;2.15;;;6.10;99.90;;;;;;5091359;28;20028;-77
2021/03/15 09:03:50;;;;;;;;;;;6.20;99.90;;;;;;5092831;28;20024;-76
2021/03/15 09:06:31;;;;;;;9.77;1.88;;;6.30;99.90;;;;;;5092226;28;20045;-75
2021/03/15 09:09:00;;;;;;;6.43;1.40;;;6.40;99.90;;;;;;5091710;28;20056;-77
2021/03/15 09:11:49;;;;;;;18.85;2.15;;;6.40;99.90;;;;;;5110083;28;20016;-77
2021/03/15 09:14:20;;;;;;;13.20;1.63;;;6.50;99.90;;;;;;5090845;28;20032;-76
2021/03/15 09:16:53;;;;;;;21.70;2.10;;;7.20;99.90;;;;;;5091529;28;20495;-76
2021/03/15 09:19:22;;;;;;;19.05;2.35;;;6.70;99.90;;;;;;5091895;28;20060;-75
2021/03/15 09:21:56;;;;;;;23.92;2.00;;;6.80;99.90;;;;;;5091234;28;20113;-77
2021/03/15 09:24:50;;;;;;;19.27;2.00;;;7.00;99.90;;;;;;5092093;28;20032;-75
2021/03/15 09:27:43;;;;;;;7.70;1.67;;;7.10;99.90;;;;;;5091668;28;20119;-76
2021/03/15 09:30:09;;;;;;;18.20;2.85;;;7.20;99.90;;;;;;5087961;28;20063;-74
2021/03/15 09:32:37;;;;;;;32.83;5.28;;;7.20;99.90;;;;;;5091853;28;20134;-76
2021/03/15 09:35:18;;;;;;;13.40;1.63;;;7.50;99.90;;;;;;5107144;28;20137;-75
2021/03/15 09:37:52;;;;;;;23.95;2.03;;;7.50;99.90;;;;;;5112007;28;20498;-75
2021/03/15 09:40:21;;;;;;;16.92;2.17;;;7.50;99.90;;;;;;5098285;28;20461;-75
2021/03/15 09:42:47;;;;;;;17.10;1.98;;;7.50;99.90;;;;;;5097065;28;20494;-76
2021/03/15 09:45:22;;;;;;;14.23;1.75;;;7.40;99.90;;;;;;5111933;28;20031;-76
2021/03/15 09:47:48;;;;;;;12.88;1.50;;;7.30;99.90;;;;;;5092346;28;20032;-75
2021/03/15 09:50:23;;;;;;;10.85;2.50;;;7.20;99.90;;;;;;5091015;28;20384;-74
2021/03/15 09:52:49;;;;;;;10.52;2.38;;;7.20;99.90;;;;;;5091449;28;20103;-75
2021/03/15 09:55:15;;;;;;;8.45;1.83;;;7.10;99.90;;;;;;5091369;28;20064;-76
2021/03/15 09:57:40;;;;;;;7.25;1.27;;;7.10;99.90;;;;;;5094493;28;20075;-75
2021/03/15 10:00:07;;;;;;;16.77;2.17;;;7.20;99.90;;;;;;5094938;28;20020;-75
2021/03/15 10:02:33;;;;;;;27.23;2.58;;;7.40;99.90;;;;;;5094696;28;20063;-75
2021/03/15 10:04:58;;;;;;;8.32;1.33;;;7.50;99.90;;;;;;5095072;28;20059;-76
2021/03/15 10:07:24;;;;;;;8.48;1.17;;;7.50;99.90;;;;;;5094974;28;20051;-77
2021/03/15 10:09:50;;;;;;;9.32;1.25;;;7.50;99.90;;;;;;5093932;28;20036;-76
2021/03/15 10:12:19;;;;;;;9.40;1.60;;;7.50;99.90;;;;;;5095153;28;20039;-75
2021/03/15 10:14:45;;;;;;;4.57;2.27;;;7.40;99.90;;;;;;5094905;28;20020;-75
2021/03/15 10:17:19;;;;;;;13.07;1.63;;;7.30;99.90;;;;;;5094029;28;20384;-76
2021/03/15 10:19:45;;;;;;;10.13;1.10;;;7.20;99.90;;;;;;5094667;28;20027;-76
2021/03/15 10:22:16;;;;;;;8.23;1.30;;;7.10;99.90;;;;;;5094412;28;20032;-75
2021/03/15 10:24:42;;;;;;;10.25;1.80;;;7.10;99.90;;;;;;5093971;28;20482;-76
2021/03/15 10:27:21;;;;;;;8.13;1.48;;;7.20;99.90;;;;;;5094529;28;20059;-75
2021/03/15 10:30:11;;;;;;;11.93;2.20;;;7.40;99.90;;;;;;5094669;28;20043;-76
2021/03/15 10:32:40;;;;;;;10.60;2.45;;;7.60;99.90;;;;;;5083946;28;20113;-76
2021/03/15 10:35:07;;;;;;;8.82;1.25;;;7.80;99.90;;;;;;5096966;28;20024;-75
2021/03/15 10:37:39;;;;;;;9.45;1.10;;;7.80;99.90;;;;;;5114882;28;20035;-75
2021/03/15 10:40:09;;;;;;;11.40;1.38;;;7.90;99.90;;;;;;5109829;28;20031;-76
2021/03/15 10:42:36;;;;;;;13.43;1.67;;;7.90;99.90;;;;;;5096049;28;20020;-76
2021/03/15 10:45:07;;;;;;;8.10;2.13;;;8.00;99.90;;;;;;5093477;28;20115;-76
2021/03/15 10:47:34;;;;;;;8.50;1.63;;;8.00;99.90;;;;;;5111558;28;20045;-76
2021/03/15 10:50:02;;;;;;;9.85;1.65;;;8.30;99.90;;;;;;5114404;28;20106;-77
2021/03/15 10:52:33;;;;;;;9.85;1.40;;;8.20;99.90;;;;;;5113760;28;20020;-75
2021/03/15 10:55:08;;;;;;;;;;;8.10;99.90;;;;;;5114635;28;20031;-76
2021/03/15 10:57:34;;;;;;;9.52;1.60;;;8.10;99.90;;;;;;5114519;28;19941;-76
2021/03/15 10:59:59;;;;;;;7.78;1.80;;;8.10;99.90;;;;;;5113790;28;20023;-76
2021/03/15 11:02:27;;;;;;;5.38;1.15;;;8.20;99.90;;;;;;5112385;28;20020;-76
2021/03/15 11:04:59;;;;;;;8.98;1.25;;;8.40;99.90;;;;;;5111400;28;20046;-74
2021/03/15 11:07:36;;;;;;;8.63;1.20;;;8.60;99.90;;;;;;5100496;28;20031;-75
2021/03/15 11:10:29;;;;;;;9.10;1.42;;;8.60;99.90;;;;;;5111376;28;20024;-74
2021/03/15 11:12:57;;;;;;;9.60;1.38;;;8.70;99.90;;;;;;5096503;28;20053;-75
2021/03/15 11:15:36;;;;;;;14.27;2.30;;;8.70;99.90;;;;;;5098959;28;20028;-76
2021/03/15 11:18:07;;;;;;;16.45;2.47;;;8.80;99.90;;;;;;5102329;28;20483;-75
2021/03/15 11:20:43;;;;;;;11.70;1.50;;;8.90;99.90;;;;;;5101948;28;20039;-77
2021/03/15 11:23:10;;;;;;;7.28;1.02;;;8.90;99.90;;;;;;5096964;28;20024;-75
2021/03/15 11:25:36;;;;;;;11.40;2.03;;;8.90;99.90;;;;;;5107771;28;20057;-76
2021/03/15 11:28:06;;;;;;;15.40;2.30;;;8.90;99.90;;;;;;5103506;28;20028;-74
2021/03/15 11:30:33;;;;;;;11.20;1.70;;;8.90;99.90;;;;;;5109292;28;20047;-76
2021/03/15 11:33:08;;;;;;;10.50;2.00;;;9.00;99.90;;;;;;5106118;28;20032;-76
2021/03/15 11:35:35;;;;;;;7.43;1.80;;;9.00;99.90;;;;;;5112404;28;20015;-75
2021/03/15 11:38:02;;;;;;;12.18;1.23;;;9.00;99.90;;;;;;5102994;28;20065;-76
2021/03/15 11:40:36;;;;;;;17.80;3.53;;;9.00;99.90;;;;;;5099027;28;20052;-76
2021/03/15 11:43:03;;;;;;;14.15;1.75;;;9.00;99.90;;;;;;5112688;28;20111;-76
2021/03/15 11:45:29;;;;;;;9.40;1.20;;;9.00;99.90;;;;;;5099242;28;20024;-75
2021/03/15 11:47:55;;;;;;;13.88;1.75;;;9.00;99.90;;;;;;5098950;28;20040;-75
2021/03/15 11:50:22;;;;;;;11.50;2.85;;;9.00;99.90;;;;;;5112632;28;20027;-77
2021/03/15 11:52:48;;;;;;;10.38;1.23;;;9.00;99.90;;;;;;5105407;28;20031;-75
2021/03/15 11:55:14;;;;;;;11.43;1.40;;;9.10;99.90;;;;;;5092330;28;20016;-75
2021/03/15 11:57:43;;;;;;;12.05;1.23;;;9.00;99.90;;;;;;5095583;28;20422;-77
2021/03/15 12:00:10;;;;;;;11.43;1.70;;;8.80;99.90;;;;;;5091879;28;20069;-77
2021/03/15 12:02:36;;;;;;;8.85;1.67;;;8.70;99.90;;;;;;5090903;28;20555;-77
2021/03/15 12:05:08;;;;;;;7.95;1.38;;;8.90;99.90;;;;;;5091248;28;20110;-76
2021/03/15 12:07:38;;;;;;;14.25;1.85;;;9.00;99.90;;;;;;5090981;28;20425;-76
2021/03/15 12:10:05;;;;;;;12.63;2.03;;;9.10;99.90;;;;;;5091045;28;20463;-76
2021/03/15 12:12:32;;;;;;;6.60;1.60;;;9.20;99.90;;;;;;5091761;28;20015;-76
2021/03/15 12:14:58;;;;;;;12.30;1.40;;;9.20;99.90;;;;;;5091289;28;20024;-77
2021/03/15 12:17:24;;;;;;;17.42;2.00;;;9.20;99.90;;;;;;5093235;28;20016;-76
2021/03/15 12:19:49;;;;;;;8.20;1.58;;;9.10;99.90;;;;;;5094709;28;20166;-76
2021/03/15 12:22:15;;;;;;;15.90;1.77;;;9.20;99.90;;;;;;5095394;28;20016;-76
2021/03/15 12:24:40;;;;;;;8.73;1.10;;;8.90;99.90;;;;;;5097719;28;20023;-77
2021/03/15 12:27:07;;;;;;;8.43;1.50;;;8.80;99.90;;;;;;5095067;28;20031;-77
2021/03/15 12:29:33;;;;;;;11.45;2.28;;;8.80;99.90;;;;;;5096844;28;20036;-76
2021/03/15 12:31:59;;;;;;;14.40;2.10;;;8.80;99.90;;;;;;5095274;28;20024;-77
2021/03/15 12:34:25;;;;;;;8.77;1.17;;;8.80;99.90;;;;;;5095127;28;20024;-76
2021/03/15 12:36:50;;;;;;;8.82;1.45;;;8.80;99.90;;;;;;5097612;28;20103;-75
2021/03/15 12:39:17;;;;;;;13.93;3.20;;;8.90;99.90;;;;;;5099216;28;20026;-78
2021/03/15 12:41:42;;;;;;;6.57;1.20;;;9.10;99.90;;;;;;5101261;28;20032;-77
2021/03/15 12:44:08;;;;;;;16.23;3.33;;;9.20;99.90;;;;;;5091870;28;20050;-77
2021/03/15 12:46:33;;;;;;;11.55;2.22;;;9.20;99.90;;;;;;5091511;28;20074;-76
2021/03/15 12:48:59;;;;;;;12.95;1.63;;;9.20;99.90;;;;;;5091624;28;20043;-76
2021/03/15 12:51:25;;;;;;;14.70;1.90;;;9.20;99.90;;;;;;5091419;28;20024;-77
2021/03/15 12:53:51;;;;;;;14.20;1.70;;;9.10;99.90;;;;;;5092183;28;20024;-77
2021/03/15 12:56:17;;;;;;;11.32;2.38;;;9.00;99.90;;;;;;5092288;28;20434;-77
2021/03/15 12:58:42;;;;;;;8.73;1.85;;;9.00;99.90;;;;;;5091726;28;20024;-77
2021/03/15 13:01:08;;;;;;;16.08;2.33;;;9.10;99.90;;;;;;5091648;28;20020;-78
2021/03/15 13:03:33;;;;;;;12.10;2.50;;;9.10;99.90;;;;;;5090932;28;20398;-78
2021/03/15 13:05:59;;;;;;;10.27;1.90;;;9.20;99.90;;;;;;5091037;28;20039;-76